Schedule Details


Flight Number: CTN301
Departure: Athens Eleftherios Venizelos International Airport (LGAV) at 19:05
Arrival: Dubrovnik / Cilipi (LDDU) at 19:55
Route: RIMAX UL613 XANIS L613 YNN UL611 VAKSU L611 LOKRU

Weather Information
LGAV 192120Z 00000KT CAVOK 13/10 Q1019 NOSIG
LDDU 192100Z 10005KT CAVOK 16/13 Q1019 NOSIG
Schedule Frequency

Route Map